Aérodrome :
LOGIN :

S'inscrire | Disclaimer

   EN    FR    IT 

 










Légende :    VFR   VFR Marginal   IFR   IFR Intensif   IFR Très Intensif
Visi : 
Plafond : 
>= 8 km
>= 3000ft
5 à 8 km
1000 à 3000 ft
1500m à 5 km
500 à 1000 ft
800 à 1500m
200 à 500 ft
< 800m
< 200 ft
Symboles :   Orages  Brouillard  Fortes neiges  Fortes précipitations  Vent > 20 kt
SIGMETs :   Divers  Orages  Givrage  Turbulence  Onde Orograph.  Cendres Volcan.







- Altitude de l'aérodrome : 659 ft
- Code IATA : LYN
- Voir les cartes d'approche


LFLY - Lyon Bron

DERNIER METAR :
  • 121100Z AUTO VRB02KT 2800 BR OVC003 M01/M02 Q1021 TEMPO 3000 BR VV///

METARs EXPIRÉS :
  • 121030Z AUTO 08004KT 030V100 1300 0800 R34/1100N BCFG OVC002 M01/M02 Q1021 TEMPO 3000 BR VV///
  • 121000Z AUTO 04004KT 010V070 0900 R34/1400U FZFG VV/// M01/M02 Q1021 TEMPO 3000 BR BKN003
  • 120930Z AUTO 04004KT 010V070 0800 0650 R34/0750D FZFG VV/// M01/M02 Q1022 TEMPO 3000 BR BKN003
  • 120900Z AUTO VRB03KT 1400 0900 R34/1300U BCFG VV/// M01/M02 Q1022 TEMPO 3000 BR BKN003
  • 120830Z AUTO VRB02KT 1300 0700 R34/1100U BCFG VV/// M01/M02 Q1022 TEMPO 3000 BR BKN003

TAF TAF LFLY
Valide du 12 à 12h jusqu'au 13 à 12h UTC


121100Z 1212/1312 VRB02KT 4000 BR BKN015
BECMG 1214/1216 04012KT CAVOK
BECMG 1222/1224 VRB02KT
BECMG 1300/1302 2000 BR BKN010
TEMPO 1302/1308 0300 FZFG VV///
BECMG 1308/1310 9999 NSW BKN015
BECMG 1310/1312 03012KT BKN020
ATIS : +33 4 72 15 87 96
Pas de NOTAMs connus pour ce terrain.



MET'MAP, la Météo Aéronautique d'un coup d'oeil ! - Copyright ORBIFLY Décembre 2007 - Disclaimer

ORBIFLY MET'MAP TEAM :

Programmation & Développement : Alexandra Zaïnal
Conception & Développement : Baudouin d'Aumeries
Co-Programmation & Développement : Marc-Olivier Méhu
Soutien technique & logistique : Manuel Goepfert

Contact : metmap@orbifly.com




SOURCES & CREDITS :

   NOAA